Accueil
METAR-TAF:

METAR-TAF

Aéroports :

Oslo, Norvège

Aéroport d'Oslo-Gardermoen

latitude: 60-12N, longitude: 011-05E, altitude: 208 m

Observation

Le bulletin a été fait il y a 18 minutes, à 22:20 UTC
Vent 2 kt de direction variable
Température 5°C
Humidité 56%
Pression 995 hPa
Visibilité 10 km ou plus
pas de nuages en-dessous de 1500 mètres et pas de cumulonimbus.

METAR: ENGM 242220Z VRB02KT CAVOK 05/M03 Q0995

Heure: 00:38 (22:38 UTC)

Prévision

Prévision valable du 24 à 18 UTC au 25 à 18 UTC
Vent 8 kt de ouest/sud-ouest
Visibilité 10 km ou plus
Quelques nuages à une hauteur de 2000 ft
Nuages épars à une hauteur de 6000 ft

TAF: ENGM 2418/2518 25008KT 9999 FEW020 SCT060

Observations et prévisions météorologiques de plus de 4000 aéroports (messages METAR et TAF).

Les stations disponibles sont représentées par des disques jaunes et rouges sur la carte.

Passer la souris dessus pour voir le nom de la station.

Cliquer dessus pour voir les observations et prévisions météorologiques.

Pour changer de carte: cliquez sur les boutons verts avec une croix noire pour zoomer, sur le bouton vert avec un tiret pour effectuer un zoom arrière, ou sur les flèches vertes pour les cartes adjacentes.


METAR-TAF: